createdAt,value
2019-05-07T00:02:14.367Z,75.45
2019-05-07T00:04:47.042Z,75.73
2019-05-07T00:07:19.723Z,76.13
2019-05-07T00:09:52.619Z,76.59
2019-05-07T00:12:25.501Z,76.82
2019-05-07T00:15:01.769Z,77.27
2019-05-07T00:17:33.099Z,77.70
2019-05-07T00:20:07.828Z,78.21
2019-05-07T00:22:41.929Z,78.48
2019-05-07T00:25:15.341Z,78.64
2019-05-07T00:27:48.020Z,78.86
2019-05-07T00:30:22.326Z,79.36
2019-05-07T00:32:55.164Z,79.65
2019-05-07T00:35:32.508Z,79.92
2019-05-07T00:38:07.696Z,80.07
2019-05-07T00:40:42.592Z,80.24
2019-05-07T00:43:22.379Z,80.55
2019-05-07T00:45:57.081Z,80.73
2019-05-07T00:48:32.631Z,80.83
2019-05-07T00:51:24.520Z,80.92
2019-05-07T00:53:57.304Z,80.89
2019-05-07T00:56:33.033Z,81.03
2019-05-07T00:59:05.023Z,81.07
2019-05-07T01:01:37.697Z,81.29
2019-05-07T01:04:11.985Z,81.57
2019-05-07T01:06:45.053Z,81.76
2019-05-07T01:09:17.682Z,81.99
2019-05-07T01:11:52.392Z,82.19
2019-05-07T01:14:25.291Z,82.32
2019-05-07T01:16:57.971Z,82.54
2019-05-07T01:19:32.687Z,82.64
2019-05-07T01:22:05.570Z,82.80
2019-05-07T01:24:38.271Z,82.96
2019-05-07T01:27:12.859Z,82.85
2019-05-07T01:29:45.253Z,82.83
2019-05-07T01:32:19.471Z,82.79
2019-05-07T01:34:53.636Z,82.70
2019-05-07T01:37:26.364Z,82.75
2019-05-07T01:39:58.990Z,82.72
2019-05-07T01:42:32.692Z,82.93
2019-05-07T01:45:09.215Z,83.07
2019-05-07T01:47:42.515Z,83.22
2019-05-07T01:50:15.698Z,83.30
2019-05-07T01:52:49.087Z,83.32
2019-05-07T01:55:22.591Z,83.14
2019-05-07T01:57:56.288Z,83.05
2019-05-07T02:00:28.969Z,83.04
2019-05-07T02:03:05.855Z,83.09
2019-05-07T02:05:49.999Z,82.99
2019-05-07T02:08:42.320Z,82.85
2019-05-07T02:11:32.723Z,82.83
2019-05-07T02:14:06.951Z,82.71
2019-05-07T02:16:41.872Z,82.85
2019-05-07T02:19:15.270Z,82.90
2019-05-07T02:21:49.789Z,83.00
2019-05-07T02:24:22.479Z,83.01
2019-05-07T02:26:55.101Z,82.88
2019-05-07T02:29:32.410Z,82.87
2019-05-07T02:32:05.177Z,82.99
2019-05-07T02:34:37.854Z,82.95
2019-05-07T02:37:12.723Z,83.00
2019-05-07T02:39:53.298Z,83.19
2019-05-07T02:42:25.979Z,83.42
2019-05-07T02:45:04.348Z,83.77
2019-05-07T02:47:37.534Z,83.96
2019-05-07T02:50:15.127Z,84.04
2019-05-07T02:52:53.360Z,84.20
2019-05-07T02:55:29.092Z,84.31
2019-05-07T02:58:03.597Z,84.34
2019-05-07T03:00:36.490Z,84.46
2019-05-07T03:03:09.163Z,84.51
2019-05-07T03:05:43.115Z,84.57
2019-05-07T03:08:16.263Z,84.60
2019-05-07T03:10:48.946Z,84.67
2019-05-07T03:13:23.769Z,84.79
2019-05-07T03:15:56.768Z,84.87
2019-05-07T03:18:33.124Z,84.98
2019-05-07T03:21:17.377Z,85.14
2019-05-07T03:23:53.852Z,85.38
2019-05-07T03:26:27.552Z,85.61
2019-05-07T03:29:03.909Z,85.86
2019-05-07T03:31:47.839Z,86.02
2019-05-07T03:34:28.212Z,86.20
2019-05-07T03:37:06.204Z,86.28
2019-05-07T03:39:36.743Z,86.37
2019-05-07T03:42:09.378Z,86.45
2019-05-07T03:44:44.484Z,86.60
2019-05-07T03:47:25.408Z,86.64
2019-05-07T03:49:58.219Z,86.71
2019-05-07T03:52:33.497Z,86.67
2019-05-07T03:55:07.264Z,86.73
2019-05-07T03:57:43.626Z,86.78
2019-05-07T04:00:16.667Z,86.78
2019-05-07T04:02:49.295Z,86.72
2019-05-07T04:05:23.173Z,86.62
2019-05-07T04:07:56.187Z,86.47
2019-05-07T04:10:28.868Z,86.26
2019-05-07T04:13:04.486Z,86.20
2019-05-07T04:15:35.869Z,86.00
2019-05-07T04:18:09.053Z,85.57
2019-05-07T04:20:43.489Z,85.16
2019-05-07T04:23:15.953Z,84.63
2019-05-07T04:25:55.755Z,84.07
2019-05-07T04:28:33.024Z,83.48
2019-05-07T04:31:04.477Z,82.77
2019-05-07T04:33:43.973Z,82.06
2019-05-07T04:36:18.746Z,81.66
2019-05-07T04:38:53.241Z,81.35
2019-05-07T04:41:25.706Z,81.10
2019-05-07T04:43:58.369Z,80.83
2019-05-07T04:46:33.444Z,81.11
2019-05-07T04:49:05.314Z,81.09
2019-05-07T04:51:49.306Z,80.97
2019-05-07T04:54:23.674Z,80.34
2019-05-07T04:56:56.304Z,79.92
2019-05-07T04:59:28.985Z,79.10
2019-05-07T05:02:06.678Z,78.22
2019-05-07T05:04:39.410Z,77.18
2019-05-07T05:07:13.385Z,77.07
2019-05-07T05:09:46.270Z,76.24
2019-05-07T05:12:19.548Z,75.63
2019-05-07T05:14:52.482Z,75.08
2019-05-07T05:17:25.314Z,73.95
2019-05-07T05:20:00.581Z,73.36
2019-05-07T05:22:48.540Z,73.45
2019-05-07T05:25:25.468Z,73.60
2019-05-07T05:27:58.150Z,73.08
2019-05-07T05:30:44.086Z,73.71
2019-05-07T05:33:16.663Z,73.83
2019-05-07T05:35:52.815Z,74.12
2019-05-07T05:38:26.782Z,73.78
2019-05-07T05:40:59.496Z,73.55
2019-05-07T05:43:44.168Z,73.42
2019-05-07T05:46:22.514Z,72.55
2019-05-07T05:48:54.397Z,72.70
2019-05-07T05:51:29.537Z,72.38
2019-05-07T05:54:09.799Z,71.76
2019-05-07T05:56:44.723Z,71.52
2019-05-07T05:59:27.914Z,71.12
2019-05-07T06:02:12.164Z,70.09
2019-05-07T06:04:49.079Z,70.15
2019-05-07T06:07:33.328Z,69.79
2019-05-07T06:10:13.069Z,69.16
2019-05-07T06:13:05.111Z,68.45
2019-05-07T06:15:57.287Z,68.87
2019-05-07T06:18:38.261Z,68.65
2019-05-07T06:21:15.811Z,68.64
2019-05-07T06:24:05.226Z,68.94
2019-05-07T06:26:38.574Z,68.37
2019-05-07T06:29:20.253Z,68.41
2019-05-07T06:32:02.749Z,68.32
2019-05-07T06:34:35.457Z,68.25
2019-05-07T06:37:08.135Z,68.45
2019-05-07T06:39:42.350Z,68.94
2019-05-07T06:42:35.197Z,68.61
2019-05-07T06:45:23.190Z,68.39
2019-05-07T06:47:56.475Z,68.19
2019-05-07T06:50:29.762Z,67.84
2019-05-07T06:53:02.825Z,67.54
2019-05-07T06:55:35.898Z,67.29
2019-05-07T06:58:12.251Z,66.95
2019-05-07T07:00:44.234Z,66.69
2019-05-07T07:03:22.300Z,65.32
2019-05-07T07:05:56.856Z,64.43
2019-05-07T07:08:33.835Z,62.48
2019-05-07T07:11:16.655Z,59.31
2019-05-07T07:13:51.983Z,57.98
2019-05-07T07:16:25.088Z,57.37
2019-05-07T07:18:57.708Z,56.76
2019-05-07T07:21:32.518Z,57.51
2019-05-07T07:24:04.605Z,56.22
2019-05-07T07:26:37.443Z,54.92
2019-05-07T07:29:12.742Z,55.07
2019-05-07T07:31:53.048Z,54.73
2019-05-07T07:34:26.644Z,54.48
2019-05-07T07:39:47.003Z,55.58
2019-05-07T07:42:19.622Z,53.44
2019-05-07T07:44:53.843Z,52.29
2019-05-07T07:47:26.520Z,52.53
2019-05-07T07:49:59.197Z,53.35
2019-05-07T07:52:32.432Z,52.12
2019-05-07T07:55:07.833Z,51.01
2019-05-07T07:57:46.144Z,51.59
2019-05-07T08:00:29.843Z,51.15
2019-05-07T08:03:02.873Z,50.03
2019-05-07T08:05:35.549Z,48.76
2019-05-07T08:08:08.839Z,48.86
2019-05-07T08:10:42.555Z,49.64
2019-05-07T08:13:15.531Z,48.69
2019-05-07T08:15:48.160Z,48.67
2019-05-07T08:18:22.234Z,49.18
2019-05-07T08:20:55.102Z,50.00
2019-05-07T08:23:27.734Z,50.92
2019-05-07T08:26:02.382Z,50.33
2019-05-07T08:28:34.701Z,50.63
2019-05-07T08:31:12.010Z,50.57
2019-05-07T08:33:49.282Z,50.24
2019-05-07T08:36:22.626Z,51.03
2019-05-07T08:38:56.557Z,50.70
2019-05-07T08:41:31.928Z,51.22
2019-05-07T08:44:22.336Z,50.32
2019-05-07T08:46:54.767Z,51.32
2019-05-07T08:49:36.875Z,53.27
2019-05-07T08:52:03.553Z,52.41
2019-05-07T08:54:36.639Z,50.98
2019-05-07T08:57:09.373Z,48.52
2019-05-07T08:59:57.619Z,47.70
2019-05-07T09:02:21.779Z,46.80
2019-05-07T09:04:53.963Z,44.45
2019-05-07T09:07:26.630Z,45.83
2019-05-07T09:09:59.269Z,45.54
2019-05-07T09:12:32.154Z,46.67
2019-05-07T09:15:08.366Z,45.57
2019-05-07T09:17:42.285Z,48.67
2019-05-07T09:20:16.488Z,50.32
2019-05-07T09:22:51.805Z,50.29
2019-05-07T09:25:25.120Z,49.32
2019-05-07T09:27:57.855Z,49.42
2019-05-07T09:30:32.685Z,48.08
2019-05-07T09:33:07.564Z,47.35
2019-05-07T09:35:52.790Z,44.12
2019-05-07T09:38:25.156Z,44.70
2019-05-07T09:40:57.905Z,43.20
2019-05-07T09:43:32.481Z,42.27
2019-05-07T09:46:05.398Z,43.74
2019-05-07T09:48:38.077Z,44.21
2019-05-07T09:51:12.256Z,42.47
2019-05-07T09:53:46.510Z,40.95
2019-05-07T09:56:19.198Z,40.00
2019-05-07T09:58:53.040Z,40.35
2019-05-07T10:01:26.082Z,39.22
2019-05-07T10:03:59.469Z,41.32
2019-05-07T10:06:32.238Z,43.43
2019-05-07T10:09:06.377Z,43.57
2019-05-07T10:11:40.665Z,42.78
2019-05-07T10:14:17.808Z,43.08
2019-05-07T10:16:56.029Z,43.82
2019-05-07T10:19:29.982Z,41.42
2019-05-07T10:22:02.668Z,39.68
2019-05-07T10:24:35.347Z,35.74
2019-05-07T10:27:09.358Z,36.66
2019-05-07T10:29:46.152Z,35.42
2019-05-07T10:32:19.273Z,34.53
2019-05-07T10:34:58.407Z,33.88
2019-05-07T10:37:33.283Z,33.80
2019-05-07T10:40:12.052Z,34.32
2019-05-07T10:42:46.320Z,35.05
2019-05-07T10:45:36.920Z,34.04
2019-05-07T10:48:13.850Z,33.44
2019-05-07T10:51:06.242Z,34.03
2019-05-07T10:53:42.400Z,33.21
2019-05-07T10:56:16.200Z,32.60
2019-05-07T10:58:49.494Z,33.71
2019-05-07T11:01:23.815Z,33.09
2019-05-07T11:03:56.596Z,32.53
2019-05-07T11:06:29.279Z,34.03
2019-05-07T11:09:02.674Z,34.85
2019-05-07T11:11:36.888Z,36.08
2019-05-07T11:14:09.567Z,35.07
2019-05-07T11:16:43.884Z,34.67
2019-05-07T11:19:18.890Z,35.80
2019-05-07T11:21:52.112Z,33.35
2019-05-07T11:24:25.200Z,33.33
2019-05-07T11:26:57.876Z,29.32
2019-05-07T11:29:32.740Z,31.53
2019-05-07T11:32:04.885Z,31.82
2019-05-07T11:34:38.013Z,30.82
2019-05-07T11:37:11.890Z,30.80
2019-05-07T11:39:44.903Z,30.70
2019-05-07T11:42:22.005Z,28.64
2019-05-07T11:44:55.232Z,27.61
2019-05-07T11:47:31.723Z,27.76
2019-05-07T11:50:14.719Z,28.45
2019-05-07T11:52:49.350Z,26.75
2019-05-07T11:55:22.639Z,28.31
2019-05-07T11:57:55.678Z,28.66
2019-05-07T12:00:32.150Z,26.60
2019-05-07T12:03:04.415Z,27.91
2019-05-07T12:05:37.352Z,28.09
2019-05-07T12:08:10.032Z,28.72
2019-05-07T12:10:42.970Z,26.51
2019-05-07T12:13:15.697Z,25.66
2019-05-07T12:15:48.982Z,26.83
2019-05-07T12:18:22.715Z,26.61
2019-05-07T12:20:55.777Z,26.03
2019-05-07T12:23:28.460Z,26.08
2019-05-07T12:26:02.541Z,26.40
2019-05-07T12:28:35.660Z,26.88
2019-05-07T12:31:12.181Z,26.36
2019-05-07T12:33:46.859Z,26.05
2019-05-07T12:36:20.150Z,26.05
2019-05-07T12:38:53.372Z,25.74
2019-05-07T12:41:34.108Z,25.14
2019-05-07T12:44:10.208Z,26.03
2019-05-07T12:46:42.793Z,27.61
2019-05-07T12:49:15.527Z,28.13
2019-05-07T12:51:49.748Z,26.44
2019-05-07T12:54:30.004Z,23.91
2019-05-07T12:57:02.677Z,24.95
2019-05-07T12:59:35.420Z,23.61
2019-05-07T13:02:21.794Z,23.66
2019-05-07T13:04:52.008Z,24.22
2019-05-07T13:07:23.837Z,24.90
2019-05-07T13:09:56.620Z,25.58
2019-05-07T13:12:29.401Z,26.57
2019-05-07T13:15:02.947Z,27.37
2019-05-07T13:17:36.405Z,26.24
2019-05-07T13:20:09.385Z,25.42
2019-05-07T13:22:42.818Z,25.40
2019-05-07T13:25:16.075Z,24.93
2019-05-07T13:27:49.360Z,24.66
2019-05-07T13:30:22.275Z,24.20
2019-05-07T13:32:57.487Z,26.12
2019-05-07T13:35:30.792Z,26.69
2019-05-07T13:38:04.632Z,28.14
2019-05-07T13:40:38.398Z,27.86
2019-05-07T13:43:13.318Z,27.04
2019-05-07T13:45:49.150Z,26.04
2019-05-07T13:48:25.548Z,26.40
2019-05-07T13:50:58.538Z,26.42
2019-05-07T13:53:32.236Z,26.58
2019-05-07T13:56:05.574Z,26.03
2019-05-07T13:58:38.215Z,25.85
2019-05-07T14:01:18.669Z,25.51
2019-05-07T14:03:51.352Z,23.36
2019-05-07T14:06:32.477Z,25.88
2019-05-07T14:09:09.043Z,26.31
2019-05-07T14:11:43.923Z,26.61
2019-05-07T14:14:16.610Z,28.01
2019-05-07T14:16:49.489Z,27.19
2019-05-07T14:19:22.632Z,27.50
2019-05-07T14:21:55.558Z,28.95
2019-05-07T14:24:28.247Z,28.80
2019-05-07T14:27:01.989Z,28.87
2019-05-07T14:29:35.241Z,29.64
2019-05-07T14:32:10.167Z,28.79
2019-05-07T14:34:44.340Z,28.89
2019-05-07T14:37:22.071Z,28.91
2019-05-07T14:39:55.017Z,27.72
2019-05-07T14:42:29.321Z,27.70
2019-05-07T14:45:01.961Z,28.49
2019-05-07T14:47:34.643Z,28.58
2019-05-07T14:50:08.649Z,28.40
2019-05-07T14:52:43.269Z,29.00
2019-05-07T14:55:17.386Z,27.75
2019-05-07T14:57:50.070Z,27.57
2019-05-07T15:00:24.500Z,28.87
2019-05-07T15:02:57.280Z,28.97
2019-05-07T15:05:29.952Z,29.61
2019-05-07T15:08:10.461Z,29.20
2019-05-07T15:10:38.433Z,29.66
2019-05-07T15:13:12.735Z,28.91
2019-05-07T15:15:45.681Z,29.28
2019-05-07T15:18:27.583Z,29.18
2019-05-07T15:21:01.903Z,28.27
2019-05-07T15:23:38.271Z,23.95
2019-05-07T15:26:12.818Z,22.34
2019-05-07T15:28:47.929Z,20.04
2019-05-07T15:31:22.087Z,20.54
2019-05-07T15:33:55.938Z,21.16
2019-05-07T15:36:28.620Z,19.96
2019-05-07T15:39:02.902Z,21.27
2019-05-07T15:41:37.358Z,19.45
2019-05-07T15:44:11.869Z,19.03
2019-05-07T15:46:44.308Z,19.28
2019-05-07T15:49:17.030Z,19.74
2019-05-07T15:51:53.016Z,20.08
2019-05-07T15:54:25.459Z,21.42
2019-05-07T15:57:01.790Z,21.67
2019-05-07T15:59:34.711Z,20.67
2019-05-07T16:02:08.931Z,19.31
2019-05-07T16:04:41.607Z,20.27
2019-05-07T16:07:14.388Z,20.82
2019-05-07T16:09:47.066Z,19.85
2019-05-07T16:12:22.687Z,19.37
2019-05-07T16:14:55.811Z,19.62
2019-05-07T16:17:38.831Z,22.24
2019-05-07T16:20:12.103Z,24.18
2019-05-07T16:22:47.721Z,24.11
2019-05-07T16:25:22.348Z,24.26
2019-05-07T16:27:54.770Z,26.28
2019-05-07T16:30:27.783Z,26.97
2019-05-07T16:33:02.152Z,27.85
2019-05-07T16:35:35.665Z,30.08
2019-05-07T16:38:08.349Z,31.60
2019-05-07T16:40:42.877Z,32.27
2019-05-07T16:43:15.453Z,32.31
2019-05-07T16:45:48.232Z,33.34
2019-05-07T16:48:23.092Z,34.21
2019-05-07T16:50:55.324Z,34.92
2019-05-07T16:53:30.245Z,35.80
2019-05-07T16:56:03.145Z,36.25
2019-05-07T16:58:52.362Z,37.40
2019-05-07T17:01:25.863Z,38.01
2019-05-07T17:04:00.129Z,38.94
2019-05-07T17:06:32.910Z,38.44
2019-05-07T17:09:14.289Z,39.22
2019-05-07T17:11:47.082Z,39.96
2019-05-07T17:14:27.074Z,40.58
2019-05-07T17:17:02.518Z,40.67
2019-05-07T17:19:36.069Z,41.65
2019-05-07T17:22:09.353Z,41.63
2019-05-07T17:24:42.813Z,42.19
2019-05-07T17:27:15.536Z,42.11
2019-05-07T17:29:48.169Z,42.13
2019-05-07T17:32:22.859Z,42.94
2019-05-07T17:34:55.113Z,43.38
2019-05-07T17:37:28.201Z,43.58
2019-05-07T17:40:03.095Z,44.59
2019-05-07T17:42:47.449Z,45.03
2019-05-07T17:45:16.531Z,45.06
2019-05-07T17:47:49.208Z,46.01
2019-05-07T17:50:23.584Z,45.09
2019-05-07T17:52:59.477Z,46.04
2019-05-07T17:55:33.118Z,46.64
2019-05-07T17:58:07.990Z,46.33
2019-05-07T18:00:42.121Z,47.32
2019-05-07T18:03:35.334Z,46.90
2019-05-07T18:06:09.826Z,47.40
2019-05-07T18:08:45.534Z,49.00
2019-05-07T18:11:25.825Z,48.49
2019-05-07T18:14:02.594Z,49.09
2019-05-07T18:16:49.782Z,49.81
2019-05-07T18:19:22.755Z,49.94
2019-05-07T18:21:55.400Z,50.55
2019-05-07T18:24:44.041Z,51.20
2019-05-07T18:27:27.096Z,51.71
2019-05-07T18:30:13.140Z,50.92
2019-05-07T18:33:11.437Z,51.35
2019-05-07T18:35:48.593Z,51.73
2019-05-07T18:38:38.792Z,51.43
2019-05-07T18:41:23.829Z,52.07
2019-05-07T18:44:12.195Z,52.60
2019-05-07T18:46:44.162Z,52.78
2019-05-07T18:49:20.589Z,52.87
2019-05-07T18:52:06.358Z,53.27
2019-05-07T18:54:47.883Z,53.53
2019-05-07T18:57:23.253Z,53.96
2019-05-07T19:02:52.641Z,54.74
2019-05-07T19:05:25.218Z,55.08
2019-05-07T19:08:07.516Z,55.70
2019-05-07T19:10:32.896Z,56.40
2019-05-07T19:13:06.029Z,57.12
2019-05-07T19:15:38.338Z,57.78
2019-05-07T19:18:12.029Z,58.52
2019-05-07T19:20:45.065Z,58.87
2019-05-07T19:23:17.573Z,58.82
2019-05-07T19:25:52.278Z,59.03
2019-05-07T19:28:24.715Z,59.75
2019-05-07T19:30:57.732Z,59.79
2019-05-07T19:33:32.430Z,59.72
2019-05-07T19:36:04.648Z,60.16
2019-05-07T19:38:37.484Z,60.97
2019-05-07T19:41:12.203Z,61.18
2019-05-07T19:43:44.632Z,62.05
2019-05-07T19:46:17.294Z,62.05
2019-05-07T19:48:51.931Z,61.99
2019-05-07T19:51:24.408Z,62.39
2019-05-07T19:53:58.172Z,62.88
2019-05-07T19:56:32.547Z,63.52
2019-05-07T19:59:05.757Z,64.15
2019-05-07T20:01:40.074Z,64.94
2019-05-07T20:04:21.538Z,65.34
2019-05-07T20:07:02.828Z,65.47
2019-05-07T20:09:39.023Z,65.34
2019-05-07T20:12:12.347Z,65.65
2019-05-07T20:14:45.142Z,66.17
2019-05-07T20:17:18.005Z,66.43
2019-05-07T20:19:52.678Z,66.99
2019-05-07T20:22:25.116Z,67.63
2019-05-07T20:25:12.384Z,67.63
2019-05-07T20:27:32.825Z,67.69
2019-05-07T20:30:07.562Z,67.96
2019-05-07T20:32:42.802Z,68.08
2019-05-07T20:35:16.128Z,68.83
2019-05-07T20:37:48.754Z,69.08
2019-05-07T20:40:22.675Z,70.20
2019-05-07T20:42:55.245Z,70.00
2019-05-07T20:45:27.921Z,70.37
2019-05-07T20:48:02.554Z,70.33
2019-05-07T20:50:34.917Z,70.74
2019-05-07T20:53:07.505Z,70.73
2019-05-07T20:55:39.870Z,71.72
2019-05-07T20:58:13.678Z,71.88
2019-05-07T21:00:46.977Z,72.66
2019-05-07T21:03:23.752Z,72.29
2019-05-07T21:05:56.846Z,72.07
2019-05-07T21:08:29.422Z,73.06
2019-05-07T21:11:02.644Z,73.00
2019-05-07T21:13:35.389Z,73.75
2019-05-07T21:16:08.057Z,74.21
2019-05-07T21:18:42.101Z,74.22
2019-05-07T21:21:14.695Z,74.40
2019-05-07T21:23:47.334Z,74.77
2019-05-07T21:26:22.293Z,75.37
2019-05-07T21:28:54.219Z,75.72
2019-05-07T21:31:26.895Z,76.51
2019-05-07T21:33:59.791Z,76.75
2019-05-07T21:36:32.521Z,77.09
2019-05-07T21:39:07.302Z,77.30
2019-05-07T21:41:42.666Z,77.03
2019-05-07T21:44:15.012Z,77.54
2019-05-07T21:46:47.678Z,77.92
2019-05-07T21:49:22.258Z,78.82
2019-05-07T21:51:54.727Z,79.41
2019-05-07T21:54:34.842Z,80.10
2019-05-07T21:57:16.426Z,80.49
2019-05-07T21:59:48.997Z,80.66
2019-05-07T22:02:23.221Z,80.86
2019-05-07T22:04:55.790Z,81.12
2019-05-07T22:07:28.469Z,81.32
2019-05-07T22:10:02.205Z,81.69
2019-05-07T22:12:35.155Z,81.92
2019-05-07T22:15:07.676Z,82.01
2019-05-07T22:17:44.136Z,82.09
2019-05-07T22:20:14.728Z,81.85
2019-05-07T22:22:47.471Z,81.96
2019-05-07T22:25:21.740Z,82.04
2019-05-07T22:27:55.944Z,82.14
2019-05-07T22:30:33.908Z,82.36
2019-05-07T22:33:08.779Z,82.40
2019-05-07T22:35:42.987Z,82.58
2019-05-07T22:38:33.385Z,82.88
2019-05-07T22:41:07.816Z,82.88
2019-05-07T22:43:42.390Z,82.26
2019-05-07T22:46:14.704Z,81.49
2019-05-07T22:48:47.494Z,80.74
2019-05-07T22:51:20.058Z,80.63
2019-05-07T22:53:52.321Z,80.76
2019-05-07T22:56:34.943Z,81.47
2019-05-07T22:59:00.818Z,82.35
2019-05-07T23:01:33.645Z,82.32
2019-05-07T23:04:06.354Z,82.66
2019-05-07T23:06:38.886Z,82.70
2019-05-07T23:09:12.781Z,82.44
2019-05-07T23:11:45.789Z,82.10
2019-05-07T23:14:22.664Z,82.26
2019-05-07T23:16:56.179Z,82.50
2019-05-07T23:19:28.732Z,82.01
2019-05-07T23:22:02.799Z,82.05
2019-05-07T23:24:35.649Z,82.31
2019-05-07T23:27:07.867Z,82.83
2019-05-07T23:29:41.805Z,82.88
2019-05-07T23:32:15.214Z,82.97
2019-05-07T23:34:47.890Z,83.13
2019-05-07T23:37:22.508Z,83.36
2019-05-07T23:39:56.433Z,83.34
2019-05-07T23:42:42.439Z,84.06
2019-05-07T23:45:15.413Z,84.63
2019-05-07T23:47:48.080Z,84.33
2019-05-07T23:50:20.826Z,84.37
2019-05-07T23:52:53.578Z,84.04
2019-05-07T23:55:26.217Z,84.35
2019-05-07T23:57:58.807Z,84.73
